Port Hope, MI (48468)

6:25 AM EDT on July 24, 2016 (GMT -0400)
across from a parking lot in side yard | | Change Station

Elev 627 ft 43.84 °N, 82.65 °W | Updated 2 minutes ago

Overcast
Overcast
70.7 °F
Feels Like 70 °F
N
4.2
Wind Variable Wind from ESE

Today
High -- | Low -- °F
--% Chance of Precip.
Yesterday
High -- | Low -- °F
Precip. -- in
Pressure 29.96 in
Visibility 10.0 miles
Clouds Scattered Clouds 7500 ft
Overcast 11000 ft
Heat Index 70 °F
Dew Point 65 °F
Humidity 83%
Rainfall 0.00 in
Snow Depth Not available.
6:11 AM 9:03 PM
Waning Gibbous, 77% visible
METAR KBAX 241014Z AUTO 16006KT 10SM SCT075 OVC110 21/14 A2996 RMK AO2 T02130144
Pressure 29.96 in
Visibility 10.0 miles
Clouds Scattered Clouds 7500 ft
Overcast 11000 ft
Heat Index 70 °F
Dew Point 65 °F
Humidity 83%
Rainfall 0.00 in
Snow Depth Not available.
6:11 AM 9:03 PM
Waning Gibbous, 77% visible
METAR KBAX 241014Z AUTO 16006KT 10SM SCT075 OVC110 21/14 A2996 RMK AO2 T02130144

10-Day Weather Forecast

Almanac

Astronomy

Jul. 24, 2016 Rise Set
Actual Time
Civil Twilight
Nautical Twilight
Astronomical Twilight
Moon
Length of Visible Light
Length of Day
Tomorrow will be .
, % of the Moon is Illuminated

Today's Extremes

State Highs State Lows

Community

WunderPhotos

Upload Photos

1,927,039 photos uploaded!

WunderBlog® & News

Nearby

Air Quality

  Air Quality AQ Index Pollutant
Not available.

Snow Depth

Station Depth Elevation

Earthquake Activity

City Distance Mag. Time & Date
Minimum magnitude displayed is 2.5.

Coastal Water Temperatures

Place Temperature

Stations

Nearby Weather Stations

Station Location Temp. Windchill Dew Point Humidity Wind Precip. Elev Updated Type
                   

Watches & Warnings

There are currently no watches in effect.